createdAt,value
2022-11-19T00:02:02.767Z,14.57
2022-11-19T00:04:30.815Z,14.83
2022-11-19T00:07:00.319Z,14.47
2022-11-19T00:09:28.457Z,13.80
2022-11-19T00:12:13.864Z,13.50
2022-11-19T00:14:41.941Z,14.13
2022-11-19T00:17:09.993Z,13.23
2022-11-19T00:19:38.027Z,14.37
2022-11-19T00:22:07.423Z,12.93
2022-11-19T00:24:35.521Z,14.27
2022-11-19T00:27:03.644Z,15.83
2022-11-19T00:29:32.544Z,15.47
2022-11-19T00:32:00.700Z,15.57
2022-11-19T00:34:28.709Z,15.73
2022-11-19T00:36:56.829Z,16.17
2022-11-19T00:39:26.191Z,15.97
2022-11-19T00:41:54.244Z,17.03
2022-11-19T00:44:22.373Z,18.33
2022-11-19T00:46:50.392Z,16.33
2022-11-19T00:49:18.722Z,14.97
2022-11-19T00:51:46.857Z,16.37
2022-11-19T00:54:14.966Z,16.73
2022-11-19T00:56:44.498Z,17.13
2022-11-19T00:59:12.515Z,16.57
2022-11-19T01:01:40.643Z,16.70
2022-11-19T01:04:08.729Z,15.23
2022-11-19T01:06:37.024Z,15.40
2022-11-19T01:09:05.655Z,14.83
2022-11-19T01:11:35.481Z,17.03
2022-11-19T01:14:06.006Z,16.03
2022-11-19T01:16:36.758Z,16.33
2022-11-19T01:19:05.535Z,15.70
2022-11-19T01:21:35.493Z,15.33
2022-11-19T01:24:04.339Z,16.03
2022-11-19T01:26:32.836Z,16.27
2022-11-19T01:29:01.386Z,17.30
2022-11-19T01:31:31.917Z,15.17
2022-11-19T01:34:00.453Z,15.93
2022-11-19T01:36:30.759Z,13.90
2022-11-19T01:38:59.216Z,16.57
2022-11-19T01:41:29.075Z,15.73
2022-11-19T01:43:59.384Z,15.27
2022-11-19T01:46:29.367Z,15.27
2022-11-19T01:49:03.743Z,15.63
2022-11-19T01:51:35.762Z,15.80
2022-11-19T01:54:10.873Z,15.77
2022-11-19T01:56:39.669Z,15.63
2022-11-19T01:59:12.239Z,16.23
2022-11-19T02:01:40.346Z,16.20
2022-11-19T02:04:10.614Z,16.43
2022-11-19T02:06:39.318Z,15.73
2022-11-19T02:09:07.400Z,17.10
2022-11-19T02:12:00.865Z,16.20
2022-11-19T02:14:55.171Z,15.53
2022-11-19T02:17:35.559Z,16.70
2022-11-19T02:20:46.715Z,15.37
2022-11-19T02:23:59.056Z,14.33
2022-11-19T02:27:05.768Z,16.00
2022-11-19T02:30:16.610Z,16.30
2022-11-19T02:32:58.072Z,14.07
2022-11-19T02:35:42.140Z,15.40
2022-11-19T02:38:19.764Z,15.97
2022-11-19T02:40:50.922Z,14.77
2022-11-19T02:43:23.337Z,14.80
2022-11-19T02:45:53.750Z,15.30
2022-11-19T02:48:27.998Z,14.10
2022-11-19T02:50:59.709Z,15.80
2022-11-19T02:53:27.826Z,15.80
2022-11-19T02:56:13.870Z,15.97
2022-11-19T02:59:04.684Z,17.37
2022-11-19T03:01:51.584Z,16.90
2022-11-19T03:04:32.918Z,17.13
2022-11-19T03:07:06.157Z,17.57
2022-11-19T03:09:37.209Z,15.70
2022-11-19T03:12:12.427Z,15.17
2022-11-19T03:15:04.432Z,16.27
2022-11-19T03:17:42.329Z,16.63
2022-11-19T03:20:21.320Z,15.20
2022-11-19T03:22:53.543Z,14.77
2022-11-19T03:25:26.523Z,16.67
2022-11-19T03:28:00.033Z,17.40
2022-11-19T03:30:30.287Z,17.23
2022-11-19T03:33:03.230Z,15.63
2022-11-19T03:35:35.987Z,15.63
2022-11-19T03:38:09.600Z,15.90
2022-11-19T03:40:38.461Z,14.33
2022-11-19T03:43:09.590Z,16.30
2022-11-19T03:45:41.915Z,15.13
2022-11-19T03:48:11.097Z,16.10
2022-11-19T03:50:47.086Z,16.13
2022-11-19T03:53:15.393Z,16.33
2022-11-19T03:55:48.645Z,14.87
2022-11-19T03:58:16.708Z,14.43
2022-11-19T04:00:44.688Z,14.87
2022-11-19T04:03:12.725Z,14.83
2022-11-19T04:05:42.172Z,15.07
2022-11-19T04:08:10.195Z,16.17
2022-11-19T04:10:38.204Z,15.60
2022-11-19T04:13:06.309Z,16.53
2022-11-19T04:15:34.348Z,17.10
2022-11-19T04:18:02.390Z,16.83
2022-11-19T04:20:30.618Z,16.00
2022-11-19T04:23:00.126Z,16.33
2022-11-19T04:25:28.210Z,15.90
2022-11-19T04:27:56.405Z,15.20
2022-11-19T04:30:24.440Z,15.30
2022-11-19T04:32:52.480Z,17.50
2022-11-19T04:35:21.941Z,17.13
2022-11-19T04:37:50.137Z,16.20
2022-11-19T04:40:19.560Z,16.40
2022-11-19T04:42:47.589Z,17.53
2022-11-19T04:45:15.703Z,14.83
2022-11-19T04:47:43.724Z,15.83
2022-11-19T04:50:11.757Z,15.43
2022-11-19T04:52:41.328Z,17.23
2022-11-19T04:55:10.829Z,16.27
2022-11-19T04:57:40.299Z,18.30
2022-11-19T05:00:09.800Z,15.23
2022-11-19T05:02:37.833Z,16.87
2022-11-19T05:05:06.544Z,17.47
2022-11-19T05:07:34.627Z,15.63
2022-11-19T05:10:02.873Z,17.43
2022-11-19T05:12:30.862Z,15.43
2022-11-19T05:15:00.260Z,16.17
2022-11-19T05:17:28.317Z,17.53
2022-11-19T05:19:56.342Z,15.50
2022-11-19T05:22:24.361Z,16.80
2022-11-19T05:24:52.511Z,14.40
2022-11-19T05:27:20.509Z,18.07
2022-11-19T05:29:48.501Z,16.13
2022-11-19T05:32:17.911Z,15.90
2022-11-19T05:34:45.940Z,16.17
2022-11-19T05:37:13.978Z,17.17
2022-11-19T05:39:42.048Z,16.53
2022-11-19T05:42:10.135Z,15.87
2022-11-19T05:44:38.220Z,17.43
2022-11-19T05:47:06.337Z,17.07
2022-11-19T05:49:35.729Z,17.07
2022-11-19T05:52:03.845Z,17.20
2022-11-19T05:54:31.928Z,16.13
2022-11-19T05:57:00.077Z,15.57
2022-11-19T05:59:28.092Z,16.70
2022-11-19T06:01:56.132Z,16.33
2022-11-19T06:04:24.119Z,15.80
2022-11-19T06:06:53.901Z,16.50
2022-11-19T06:09:22.280Z,16.30
2022-11-19T06:11:50.994Z,16.90
2022-11-19T06:14:22.092Z,16.23
2022-11-19T06:16:51.384Z,16.80
2022-11-19T06:19:20.218Z,16.70
2022-11-19T06:21:49.047Z,17.27
2022-11-19T06:24:18.483Z,19.10
2022-11-19T06:26:46.712Z,17.23
2022-11-19T06:29:15.929Z,17.87
2022-11-19T06:31:44.181Z,16.77
2022-11-19T06:34:12.168Z,20.50
2022-11-19T06:36:44.959Z,16.00
2022-11-19T06:39:15.835Z,19.00
2022-11-19T06:41:45.253Z,15.70
2022-11-19T06:44:13.272Z,17.87
2022-11-19T06:46:41.461Z,16.70
2022-11-19T06:49:12.211Z,18.63
2022-11-19T06:51:42.320Z,17.17
2022-11-19T06:54:11.333Z,16.10
2022-11-19T06:56:39.373Z,17.17
2022-11-19T06:59:08.701Z,17.20
2022-11-19T07:01:36.749Z,16.93
2022-11-19T07:04:04.923Z,18.67
2022-11-19T07:06:32.947Z,16.63
2022-11-19T07:09:00.927Z,17.77
2022-11-19T07:11:29.192Z,18.17
2022-11-19T07:13:58.513Z,18.37
2022-11-19T07:16:29.975Z,17.37
2022-11-19T07:18:59.700Z,19.77
2022-11-19T07:21:28.344Z,18.00
2022-11-19T07:23:56.584Z,16.60
2022-11-19T07:26:24.801Z,18.50
2022-11-19T07:28:52.809Z,18.80
2022-11-19T07:31:20.868Z,16.60
2022-11-19T07:33:50.209Z,19.10
2022-11-19T07:36:18.804Z,19.37
2022-11-19T07:38:47.326Z,18.87
2022-11-19T07:41:32.612Z,20.97
2022-11-19T07:44:00.644Z,18.60
2022-11-19T07:46:28.831Z,19.87
2022-11-19T07:48:59.400Z,19.93
2022-11-19T07:51:27.932Z,18.40
2022-11-19T07:53:56.752Z,19.47
2022-11-19T07:56:25.360Z,20.40
2022-11-19T07:58:53.685Z,18.30
2022-11-19T08:01:23.713Z,19.23
2022-11-19T08:03:56.314Z,19.87
2022-11-19T08:06:27.598Z,20.00
2022-11-19T08:08:56.174Z,20.27
2022-11-19T08:11:24.721Z,19.33
2022-11-19T08:13:53.143Z,19.10
2022-11-19T08:16:35.226Z,20.77
2022-11-19T08:19:03.372Z,20.40
2022-11-19T08:21:32.791Z,19.50
2022-11-19T08:24:00.866Z,19.53
2022-11-19T08:26:28.885Z,18.50
2022-11-19T08:28:56.926Z,18.37
2022-11-19T08:31:24.968Z,20.00
2022-11-19T08:33:53.025Z,17.77
2022-11-19T08:36:21.091Z,17.23
2022-11-19T08:38:50.469Z,17.83
2022-11-19T08:41:35.633Z,18.73
2022-11-19T08:44:04.412Z,17.37
2022-11-19T08:46:32.440Z,16.30
2022-11-19T08:49:00.416Z,18.00
2022-11-19T08:51:28.497Z,17.43
2022-11-19T08:53:57.954Z,18.50
2022-11-19T08:56:26.120Z,18.13
2022-11-19T08:58:58.507Z,17.27
2022-11-19T09:01:29.353Z,15.57
2022-11-19T09:03:57.394Z,14.67
2022-11-19T09:06:25.389Z,16.23
2022-11-19T09:08:53.429Z,14.13
2022-11-19T09:11:23.727Z,16.33
2022-11-19T09:13:51.779Z,14.53
2022-11-19T09:16:20.042Z,13.70
2022-11-19T09:18:48.084Z,16.23
2022-11-19T09:21:16.288Z,14.13
2022-11-19T09:23:44.348Z,15.87
2022-11-19T09:26:14.314Z,13.53
2022-11-19T09:28:44.407Z,14.10
2022-11-19T09:31:13.603Z,13.77
2022-11-19T09:33:43.563Z,14.93
2022-11-19T09:36:12.933Z,13.40
2022-11-19T09:38:41.315Z,14.83
2022-11-19T09:41:31.054Z,13.97
2022-11-19T09:44:07.993Z,15.13
2022-11-19T09:46:45.737Z,13.15
2022-11-19T09:49:18.035Z,22.75
2022-11-19T09:51:53.269Z,14.32
2022-11-19T09:54:23.548Z,13.45
2022-11-19T09:56:59.214Z,14.55
2022-11-19T09:59:36.607Z,13.77
2022-11-19T10:02:13.952Z,14.13
2022-11-19T10:04:42.037Z,14.07
2022-11-19T10:07:19.062Z,14.98
2022-11-19T10:09:57.216Z,14.52
2022-11-19T10:12:44.686Z,13.82
2022-11-19T10:15:20.728Z,14.32
2022-11-19T10:17:59.113Z,13.85
2022-11-19T10:20:49.126Z,13.40
2022-11-19T10:23:19.308Z,14.10
2022-11-19T10:25:48.840Z,13.77
2022-11-19T10:28:20.604Z,14.82
2022-11-19T10:30:52.832Z,12.80
2022-11-19T10:33:26.819Z,13.48
2022-11-19T10:35:58.568Z,13.75
2022-11-19T10:38:33.971Z,11.07
2022-11-19T10:41:06.979Z,14.05
2022-11-19T10:43:39.652Z,13.57
2022-11-19T10:46:11.936Z,10.88
2022-11-19T10:48:43.468Z,13.88
2022-11-19T10:51:15.444Z,11.23
2022-11-19T10:53:45.576Z,16.00
2022-11-19T10:56:16.420Z,14.20
2022-11-19T10:58:48.122Z,14.55
2022-11-19T11:01:26.524Z,13.35
2022-11-19T11:04:07.036Z,11.35
2022-11-19T11:06:52.514Z,11.85
2022-11-19T11:09:31.051Z,11.45
2022-11-19T11:12:19.789Z,14.15
2022-11-19T11:14:55.044Z,12.38
2022-11-19T11:17:26.890Z,11.70
2022-11-19T11:20:00.467Z,11.20
2022-11-19T11:22:29.341Z,12.88
2022-11-19T11:25:00.557Z,14.13
2022-11-19T11:27:34.368Z,12.13
2022-11-19T11:30:08.372Z,12.43
2022-11-19T11:32:37.813Z,12.40
2022-11-19T11:35:09.974Z,13.65
2022-11-19T11:37:40.407Z,12.13
2022-11-19T11:40:19.304Z,13.45
2022-11-19T11:42:47.801Z,12.40
2022-11-19T11:45:23.752Z,14.40
2022-11-19T11:47:53.331Z,12.23
2022-11-19T11:50:25.945Z,12.38
2022-11-19T11:52:57.677Z,11.85
2022-11-19T11:55:33.439Z,12.20
2022-11-19T11:58:03.484Z,11.30
2022-11-19T12:00:37.033Z,11.00
2022-11-19T12:03:09.288Z,15.48
2022-11-19T12:05:48.689Z,12.25
2022-11-19T12:08:38.828Z,33.85
2022-11-19T12:11:14.365Z,19.42
2022-11-19T12:14:09.503Z,11.80
2022-11-19T12:16:51.019Z,11.45
2022-11-19T12:19:41.404Z,10.43
2022-11-19T12:22:20.428Z,11.88
2022-11-19T12:25:20.027Z,12.13
2022-11-19T12:27:58.362Z,13.10
2022-11-19T12:30:31.563Z,13.05
2022-11-19T12:33:21.729Z,16.60
2022-11-19T12:36:02.060Z,33.33
2022-11-19T12:38:42.263Z,26.92
2022-11-19T12:41:28.112Z,13.85
2022-11-19T12:43:59.344Z,13.20
2022-11-19T12:46:37.902Z,11.55
2022-11-19T12:49:28.687Z,12.20
2022-11-19T12:52:04.420Z,11.20
2022-11-19T12:54:53.584Z,10.90
2022-11-19T12:57:37.483Z,12.00
2022-11-19T13:00:18.898Z,10.88
2022-11-19T13:02:57.201Z,12.32
2022-11-19T13:05:37.372Z,11.45
2022-11-19T13:08:12.854Z,14.02
2022-11-19T13:10:44.701Z,14.32
2022-11-19T13:13:17.170Z,12.30
2022-11-19T13:15:48.418Z,10.70
2022-11-19T13:18:18.849Z,11.00
2022-11-19T13:20:50.741Z,12.23
2022-11-19T13:23:25.619Z,11.20
2022-11-19T13:25:59.354Z,10.00
2022-11-19T13:28:33.896Z,12.70
2022-11-19T13:31:07.421Z,11.73
2022-11-19T13:33:41.458Z,11.77
2022-11-19T13:36:19.580Z,11.98
2022-11-19T13:38:53.530Z,15.15
2022-11-19T13:41:25.656Z,22.60
2022-11-19T13:44:13.891Z,16.80
2022-11-19T13:46:46.324Z,15.32
2022-11-19T13:49:20.589Z,18.50
2022-11-19T13:51:52.413Z,10.38
2022-11-19T13:54:25.641Z,13.25
2022-11-19T13:56:56.974Z,11.65
2022-11-19T13:59:32.434Z,11.20
2022-11-19T14:02:51.558Z,10.23
2022-11-19T14:06:07.533Z,12.43
2022-11-19T14:08:58.365Z,9.55
2022-11-19T14:12:08.172Z,12.45
2022-11-19T14:15:10.782Z,10.18
2022-11-19T14:18:04.175Z,10.65
2022-11-19T14:20:53.468Z,12.57
2022-11-19T14:24:06.621Z,11.02
2022-11-19T14:27:04.257Z,10.98
2022-11-19T14:30:02.795Z,9.50
2022-11-19T14:32:34.085Z,10.30
2022-11-19T14:35:41.531Z,11.65
2022-11-19T14:38:29.772Z,9.85
2022-11-19T14:41:08.595Z,10.65
2022-11-19T14:44:09.770Z,11.18
2022-11-19T14:46:40.022Z,10.73
2022-11-19T14:49:28.006Z,11.35
2022-11-19T14:51:58.003Z,10.05
2022-11-19T14:54:38.068Z,12.40
2022-11-19T14:57:15.824Z,13.38
2022-11-19T14:59:51.184Z,9.77
2022-11-19T15:02:25.276Z,13.27
2022-11-19T15:04:58.876Z,10.23
2022-11-19T15:07:36.412Z,11.85
2022-11-19T15:10:30.316Z,12.15
2022-11-19T15:13:18.788Z,10.48
2022-11-19T15:15:50.564Z,12.35
2022-11-19T15:18:56.580Z,11.55
2022-11-19T15:21:47.076Z,11.25
2022-11-19T15:24:26.530Z,11.82
2022-11-19T15:27:02.245Z,11.25
2022-11-19T15:29:57.040Z,11.70
2022-11-19T15:32:34.485Z,11.77
2022-11-19T15:35:26.537Z,11.68
2022-11-19T15:37:58.992Z,11.87
2022-11-19T15:40:30.065Z,14.57
2022-11-19T15:43:05.489Z,13.53
2022-11-19T15:45:40.373Z,11.63
2022-11-19T15:48:15.170Z,15.30
2022-11-19T15:50:44.272Z,14.07
2022-11-19T15:53:18.764Z,14.50
2022-11-19T15:55:54.595Z,13.73
2022-11-19T15:58:26.969Z,15.10
2022-11-19T16:00:56.524Z,14.40
2022-11-19T16:03:26.147Z,15.73
2022-11-19T16:06:03.668Z,14.40
2022-11-19T16:08:32.332Z,16.00
2022-11-19T16:11:20.612Z,16.37
2022-11-19T16:14:10.431Z,19.53
2022-11-19T16:16:56.153Z,16.43
2022-11-19T16:19:25.803Z,17.43
2022-11-19T16:21:57.897Z,17.70
2022-11-19T16:24:45.987Z,18.07
2022-11-19T16:27:21.556Z,18.07
2022-11-19T16:29:49.668Z,16.80
2022-11-19T16:32:19.816Z,18.13
2022-11-19T16:34:49.563Z,18.80
2022-11-19T16:37:20.284Z,17.50
2022-11-19T16:39:52.057Z,18.13
2022-11-19T16:42:26.442Z,18.47
2022-11-19T16:44:56.743Z,15.57
2022-11-19T16:47:29.992Z,18.73
2022-11-19T16:50:02.336Z,20.07
2022-11-19T16:52:40.519Z,26.13
2022-11-19T16:55:51.420Z,30.43
2022-11-19T16:58:25.231Z,27.43
2022-11-19T17:00:59.685Z,25.60
2022-11-19T17:03:34.530Z,23.63
2022-11-19T17:06:05.417Z,22.50
2022-11-19T17:08:34.621Z,26.47
2022-11-19T17:11:52.364Z,21.40
2022-11-19T17:14:24.481Z,23.00
2022-11-19T17:16:54.429Z,21.53
2022-11-19T17:19:27.229Z,21.40
2022-11-19T17:22:02.456Z,19.70
2022-11-19T17:24:32.908Z,22.83
2022-11-19T17:27:01.393Z,21.10
2022-11-19T17:29:29.427Z,20.90
2022-11-19T17:31:57.825Z,19.97
2022-11-19T17:34:32.112Z,20.37
2022-11-19T17:37:01.493Z,21.90
2022-11-19T17:39:29.492Z,21.43
2022-11-19T17:42:15.589Z,23.27
2022-11-19T17:44:43.740Z,20.30
2022-11-19T17:47:22.490Z,19.80
2022-11-19T17:49:52.110Z,20.77
2022-11-19T17:52:26.349Z,22.87
2022-11-19T17:54:56.898Z,23.67
2022-11-19T17:57:24.926Z,26.93
2022-11-19T17:59:53.193Z,27.97
2022-11-19T18:02:22.015Z,26.97
2022-11-19T18:04:50.137Z,27.23
2022-11-19T18:07:18.213Z,28.13
2022-11-19T18:09:47.672Z,29.50
2022-11-19T18:12:17.924Z,32.70
2022-11-19T18:14:47.721Z,31.07
2022-11-19T18:17:16.882Z,30.57
2022-11-19T18:19:44.947Z,27.80
2022-11-19T18:22:18.397Z,27.47
2022-11-19T18:24:49.852Z,26.67
2022-11-19T18:27:18.485Z,28.03
2022-11-19T18:29:46.785Z,76.73
2022-11-19T18:32:17.068Z,82.80
2022-11-19T18:34:46.244Z,41.13
2022-11-19T18:37:14.395Z,42.57
2022-11-19T18:39:42.430Z,30.07
2022-11-19T18:42:13.104Z,27.67
2022-11-19T18:44:43.333Z,26.80
2022-11-19T18:47:12.844Z,25.27
2022-11-19T18:49:41.156Z,24.27
2022-11-19T18:52:12.770Z,25.30
2022-11-19T18:54:40.853Z,24.87
2022-11-19T18:57:09.727Z,25.07
2022-11-19T18:59:40.344Z,25.20
2022-11-19T19:02:09.784Z,23.00
2022-11-19T19:04:38.044Z,21.70
2022-11-19T19:07:06.083Z,22.67
2022-11-19T19:09:34.150Z,27.67
2022-11-19T19:12:21.401Z,23.70
2022-11-19T19:14:51.927Z,25.73
2022-11-19T19:17:20.149Z,26.43
2022-11-19T19:19:49.066Z,26.50
2022-11-19T19:22:18.232Z,23.73
2022-11-19T19:24:46.939Z,27.57
2022-11-19T19:27:15.219Z,27.57
2022-11-19T19:29:43.540Z,27.67
2022-11-19T19:32:13.023Z,29.57
2022-11-19T19:34:41.017Z,33.50
2022-11-19T19:37:09.012Z,30.47
2022-11-19T19:39:37.367Z,27.37
2022-11-19T19:42:05.711Z,29.10
2022-11-19T19:44:33.729Z,30.17
2022-11-19T19:47:02.291Z,29.63
2022-11-19T19:49:37.310Z,35.27
2022-11-19T19:52:06.581Z,35.07
2022-11-19T19:54:34.600Z,33.57
2022-11-19T19:57:02.598Z,31.80
2022-11-19T19:59:30.679Z,35.37
2022-11-19T20:01:58.771Z,34.17
2022-11-19T20:04:26.866Z,36.43
2022-11-19T20:06:56.285Z,38.87
2022-11-19T20:09:24.630Z,41.63
2022-11-19T20:11:53.329Z,46.57
2022-11-19T20:14:22.097Z,51.67
2022-11-19T20:16:50.129Z,50.93
2022-11-19T20:19:18.292Z,52.03
2022-11-19T20:21:47.150Z,53.63
2022-11-19T20:24:18.608Z,49.53
2022-11-19T20:26:46.671Z,49.13
2022-11-19T20:29:16.372Z,57.97
2022-11-19T20:31:47.716Z,63.93
2022-11-19T20:34:16.489Z,60.77
2022-11-19T20:36:45.183Z,60.80
2022-11-19T20:39:13.745Z,50.90
2022-11-19T20:42:00.874Z,48.50
2022-11-19T20:44:28.961Z,51.57
2022-11-19T20:46:58.440Z,48.23
2022-11-19T20:49:28.596Z,37.00
2022-11-19T20:51:57.031Z,42.27
2022-11-19T20:54:25.705Z,35.40
2022-11-19T20:56:56.158Z,35.27
2022-11-19T20:59:25.757Z,30.90
2022-11-19T21:01:54.861Z,27.03
2022-11-19T21:04:24.062Z,31.13
2022-11-19T21:06:53.795Z,29.70
2022-11-19T21:09:22.268Z,31.50
2022-11-19T21:11:50.429Z,30.37
2022-11-19T21:14:19.914Z,27.97
2022-11-19T21:16:48.005Z,29.53
2022-11-19T21:19:16.660Z,30.80
2022-11-19T21:21:45.544Z,28.90
2022-11-19T21:24:14.000Z,29.17
2022-11-19T21:26:42.084Z,29.53
2022-11-19T21:29:10.226Z,33.77
2022-11-19T21:31:42.039Z,31.40
2022-11-19T21:34:12.099Z,38.00
2022-11-19T21:36:41.818Z,28.73
2022-11-19T21:39:11.138Z,28.73
2022-11-19T21:41:39.315Z,28.27
2022-11-19T21:44:07.873Z,28.30
2022-11-19T21:46:36.912Z,27.83
2022-11-19T21:49:06.516Z,26.37
2022-11-19T21:51:34.792Z,25.60
2022-11-19T21:54:02.799Z,23.47
2022-11-19T21:56:36.920Z,25.67
2022-11-19T21:59:06.836Z,23.97
2022-11-19T22:01:35.026Z,25.40
2022-11-19T22:04:02.990Z,25.87
2022-11-19T22:06:33.153Z,25.27
2022-11-19T22:09:01.430Z,26.27
2022-11-19T22:11:29.464Z,24.00
2022-11-19T22:13:58.780Z,30.20
2022-11-19T22:16:26.840Z,50.10
2022-11-19T22:18:54.831Z,41.87
2022-11-19T22:21:22.899Z,47.27
2022-11-19T22:23:53.182Z,39.13
2022-11-19T22:26:21.213Z,32.57
2022-11-19T22:28:49.229Z,25.20
2022-11-19T22:31:17.313Z,25.40
2022-11-19T22:33:45.292Z,23.27
2022-11-19T22:36:13.341Z,23.63
2022-11-19T22:38:41.347Z,21.17
2022-11-19T22:41:13.024Z,21.13
2022-11-19T22:43:41.732Z,23.00
2022-11-19T22:46:11.000Z,20.40
2022-11-19T22:48:39.435Z,25.60
2022-11-19T22:51:08.783Z,21.33
2022-11-19T22:53:37.628Z,22.67
2022-11-19T22:56:07.665Z,22.50
2022-11-19T22:58:38.194Z,23.23
2022-11-19T23:01:08.021Z,21.63
2022-11-19T23:03:36.174Z,22.23
2022-11-19T23:06:04.267Z,25.87
2022-11-19T23:08:32.258Z,24.03
2022-11-19T23:11:01.768Z,25.03
2022-11-19T23:13:33.168Z,22.70
2022-11-19T23:16:06.875Z,25.87
2022-11-19T23:18:37.084Z,24.40
2022-11-19T23:21:07.848Z,22.70
2022-11-19T23:23:36.107Z,22.70
2022-11-19T23:26:05.541Z,25.50
2022-11-19T23:28:36.001Z,23.37
2022-11-19T23:31:06.588Z,23.03
2022-11-19T23:33:34.757Z,23.53
2022-11-19T23:36:03.929Z,22.63
2022-11-19T23:38:32.163Z,24.23
2022-11-19T23:41:00.720Z,21.60
2022-11-19T23:43:29.584Z,20.80
2022-11-19T23:46:06.207Z,22.47
2022-11-19T23:48:34.798Z,22.33
2022-11-19T23:51:03.468Z,20.87
2022-11-19T23:53:31.733Z,20.97
2022-11-19T23:56:00.581Z,21.13
2022-11-19T23:58:29.017Z,21.73
